Time;durP1;ratioP1;P1;durP2;ratioP2;P2;SDS_P1;SDS_P2;PMS_P1;PMS_P2;Temp;Humidity;BMP_temperature;BMP_pressure;BME280_temperature;BME280_humidity;BME280_pressure;Samples;Min_cycle;Max_cycle;Signal;HPM_P1;HPM_P2
2022/05/15 00:01:47;;;;;;;20.67;7.35;;;;;;;10.86;100.00;163402.88;4989684;28;20129;-54
2022/05/15 00:04:13;;;;;;;34.08;8.80;;;;;;;10.82;100.00;163392.09;4991178;28;20046;-54
2022/05/15 00:06:38;;;;;;;33.78;9.98;;;;;;;10.76;100.00;163378.56;4988426;28;20595;-55
2022/05/15 00:09:04;;;;;;;30.73;9.00;;;;;;;10.68;100.00;163355.63;4991190;28;20030;-54
2022/05/15 00:11:29;;;;;;;25.35;7.57;;;;;;;10.61;100.00;163338.13;4989654;28;20062;-54
2022/05/15 00:13:57;;;;;;;26.50;8.75;;;;;;;10.42;100.00;163289.50;4991385;28;20034;-55
2022/05/15 00:16:23;;;;;;;25.52;10.35;;;;;;;10.45;100.00;163297.63;4977378;28;20077;-57
2022/05/15 00:18:50;;;;;;;37.33;8.70;;;;;;;10.39;100.00;163281.38;4972773;28;20034;-57
2022/05/15 00:21:15;;;;;;;27.33;8.75;;;;;;;10.26;100.00;163247.63;4971087;28;20035;-57
2022/05/15 00:23:41;;;;;;;31.80;9.30;;;;;;;10.20;100.00;163231.41;4972745;28;20482;-57
2022/05/15 00:26:06;;;;;;;28.98;8.25;;;;;;;10.18;100.00;163224.66;4971517;28;20470;-57
2022/05/15 00:28:32;;;;;;;31.52;11.20;;;;;;;10.15;100.00;163217.91;4972405;28;20034;-58
2022/05/15 00:30:57;;;;;;;29.15;11.15;;;;;;;10.15;100.00;163219.28;4971050;28;20050;-57
2022/05/15 00:33:22;;;;;;;27.92;9.45;;;;;;;10.13;100.00;163212.50;4972816;28;20394;-57
2022/05/15 00:35:48;;;;;;;31.58;7.60;;;;;;;10.15;100.00;163219.28;4970630;28;20043;-57
2022/05/15 00:38:14;;;;;;;24.88;7.97;;;;;;;10.13;100.00;163213.88;4972364;28;20022;-57
2022/05/15 00:40:42;;;;;;;23.25;9.77;;;;;;;10.10;100.00;163205.78;4970906;28;20113;-57
2022/05/15 00:43:13;;;;;;;33.67;9.60;;;;;;;10.10;100.00;163204.44;4979265;28;20515;-57
2022/05/15 00:45:38;;;;;;;28.90;8.45;;;;;;;10.11;100.00;163207.16;4990125;28;20042;-57
2022/05/15 00:48:04;;;;;;;26.05;8.77;;;;;;;10.14;100.00;163216.59;4992003;28;20437;-57
2022/05/15 00:50:33;;;;;;;28.05;7.88;;;;;;;10.13;100.00;163213.88;4990452;28;20026;-57
2022/05/15 00:53:02;;;;;;;25.85;9.85;;;;;;;10.11;100.00;163208.47;4991573;28;20057;-57
2022/05/15 00:55:35;;;;;;;25.92;7.80;;;;;;;10.05;100.00;163192.28;4990148;28;20077;-57
2022/05/15 00:58:07;;;;;;;33.13;8.77;;;;;;;9.98;100.00;163174.72;4991529;28;20505;-57
2022/05/15 01:00:34;;;;;;;36.03;10.98;;;;;;;9.94;100.00;163162.63;4989765;28;20030;-57
2022/05/15 01:03:09;;;;;;;30.45;8.80;;;;;;;9.91;100.00;163154.50;4991734;28;20025;-57
2022/05/15 01:05:37;;;;;;;30.90;11.00;;;;;;;9.90;100.00;163151.81;4989364;28;20125;-57
2022/05/15 01:08:02;;;;;;;30.23;10.55;;;;;;;9.88;100.00;163146.41;4991837;28;20037;-57
2022/05/15 01:10:28;;;;;;;33.63;7.63;;;;;;;9.85;100.00;163139.66;4989151;28;20038;-57
2022/05/15 01:12:57;;;;;;;25.83;9.82;;;;;;;9.82;100.00;163132.94;4971985;28;20033;-57
2022/05/15 01:15:24;;;;;;;27.13;8.70;;;;;;;9.80;100.00;163127.50;4970553;28;20117;-57
2022/05/15 01:17:50;;;;;;;33.20;9.43;;;;;;;9.78;100.00;163122.16;4972008;28;20381;-57
2022/05/15 01:20:20;;;;;;;28.73;8.48;;;;;;;9.77;100.00;163119.44;4971868;28;20383;-57
2022/05/15 01:22:46;;;;;;;29.75;10.13;;;;;;;9.79;100.00;163124.81;4971724;28;20027;-57
2022/05/15 01:25:17;;;;;;;35.08;10.15;;;;;;;9.76;100.00;163116.75;4972053;28;20034;-57
2022/05/15 01:28:07;;;;;;;28.50;9.32;;;;;;;9.73;100.00;163108.63;4951381;28;20043;-57
2022/05/15 01:30:34;;;;;;;30.73;9.85;;;;;;;9.67;100.00;163092.44;4953503;28;20530;-57
2022/05/15 01:33:00;;;;;;;27.70;9.73;;;;;;;9.64;100.00;163084.38;4972157;28;20473;-57
2022/05/15 01:35:26;;;;;;;35.50;8.05;;;;;;;9.62;100.00;163080.31;4970332;28;20038;-57
2022/05/15 01:37:51;;;;;;;28.38;7.07;;;;;;;9.58;100.00;163068.16;4971835;28;20105;-57
2022/05/15 01:40:17;;;;;;;32.15;10.50;;;;;;;9.49;100.00;163046.56;4970355;28;20031;-57
2022/05/15 01:42:43;;;;;;;24.90;8.85;;;;;;;9.42;100.00;163027.69;4989784;28;20034;-57
2022/05/15 01:45:09;;;;;;;24.45;10.32;;;;;;;9.38;100.00;163016.91;4989754;28;20589;-57
2022/05/15 01:47:34;;;;;;;28.63;7.85;;;;;;;9.33;100.00;163003.44;4991371;28;20560;-57
2022/05/15 01:50:00;;;;;;;31.27;10.52;;;;;;;9.31;100.00;162998.03;4994901;28;20027;-57
2022/05/15 01:52:26;;;;;;;30.00;9.35;;;;;;;9.28;100.00;162989.91;4993624;28;20049;-57
2022/05/15 01:54:52;;;;;;;30.98;8.88;;;;;;;9.26;100.00;162985.91;4994651;28;20027;-57
2022/05/15 01:57:17;;;;;;;31.15;11.52;;;;;;;9.27;100.00;162988.59;4993635;28;20046;-57
2022/05/15 01:59:43;;;;;;;31.02;9.85;;;;;;;9.29;100.00;162992.63;4976705;28;20031;-57
2022/05/15 02:02:08;;;;;;;24.70;8.38;;;;;;;9.27;100.00;162987.28;4973847;28;20053;-57
2022/05/15 02:04:34;;;;;;;34.55;10.18;;;;;;;9.21;100.00;162972.41;4978476;28;20042;-57
2022/05/15 02:06:59;;;;;;;30.45;9.98;;;;;;;9.16;100.00;162960.28;4993036;28;20046;-57
2022/05/15 02:09:25;;;;;;;29.38;7.15;;;;;;;9.13;100.00;162950.84;4986507;28;20031;-57
2022/05/15 02:11:50;;;;;;;17.83;7.38;;;;;;;9.09;100.00;162940.03;4973700;28;20134;-57
2022/05/15 02:14:16;;;;;;;31.70;9.55;;;;;;;9.02;100.00;162923.84;4974953;28;20023;-56
2022/05/15 02:16:41;;;;;;;23.33;9.00;;;;;;;8.94;100.00;162900.94;4973400;28;20043;-56
2022/05/15 02:19:07;;;;;;;27.80;9.70;;;;;;;8.86;100.00;162880.75;4974024;28;20034;-56
2022/05/15 02:21:32;;;;;;;26.17;9.65;;;;;;;8.81;100.00;162868.59;4972993;28;20094;-57
2022/05/15 02:23:58;;;;;;;29.35;10.38;;;;;;;8.78;100.00;162860.50;4975104;28;20030;-56
2022/05/15 02:26:24;;;;;;;19.55;8.88;;;;;;;8.78;100.00;162860.50;4973521;28;20402;-56
2022/05/15 02:28:49;;;;;;;23.98;9.55;;;;;;;8.75;100.00;162852.38;4974479;28;20035;-56
2022/05/15 02:31:15;;;;;;;30.77;11.00;;;;;;;8.72;100.00;162845.66;4978328;28;20042;-57
2022/05/15 02:33:41;;;;;;;21.77;8.25;;;;;;;8.69;100.00;162837.59;4994222;28;20042;-57
2022/05/15 02:36:07;;;;;;;24.77;8.77;;;;;;;8.65;100.00;162825.44;4992404;28;20054;-56
2022/05/15 02:38:32;;;;;;;25.00;9.40;;;;;;;8.61;100.00;162814.63;4992624;28;20026;-57
2022/05/15 02:40:58;;;;;;;32.78;9.02;;;;;;;8.62;100.00;162817.34;4992762;28;20051;-56
2022/05/15 02:43:23;;;;;;;33.90;10.00;;;;;;;8.63;100.00;162820.03;4993896;28;20034;-56
2022/05/15 02:45:48;;;;;;;36.38;11.13;;;;;;;8.66;100.00;162828.16;4992259;28;20511;-56
2022/05/15 02:51:03;;;;;;;29.17;9.68;;;;;;;8.67;100.00;162832.19;4992515;28;20414;-56
2022/05/15 02:53:30;;;;;;;23.00;8.85;;;;;;;8.64;100.00;162822.75;4993924;28;20033;-57
2022/05/15 02:55:55;;;;;;;30.33;9.13;;;;;;;8.54;100.00;162798.47;4991048;28;20667;-56
2022/05/15 02:58:20;;;;;;;21.67;8.65;;;;;;;8.54;100.00;162798.47;4993097;28;20041;-56
2022/05/15 03:00:46;;;;;;;32.53;9.02;;;;;;;8.53;100.00;162794.44;4974976;28;20109;-57
2022/05/15 03:03:11;;;;;;;30.90;11.18;;;;;;;8.52;100.00;162791.72;4974352;28;20027;-56
2022/05/15 03:05:37;;;;;;;37.15;9.15;;;;;;;8.54;100.00;162797.16;4972276;28;20047;-56
2022/05/15 03:08:02;;;;;;;14.93;7.55;;;;;;;8.51;100.00;162790.41;4974250;28;20029;-57
2022/05/15 03:10:29;;;;;;;27.05;9.85;;;;;;;8.56;100.00;162802.53;4972737;28;20113;-57
2022/05/15 03:12:54;;;;;;;27.02;9.15;;;;;;;8.58;100.00;162807.91;4973779;28;20015;-57
2022/05/15 03:15:20;;;;;;;29.70;10.50;;;;;;;8.58;100.00;162807.91;4972757;28;20127;-57
2022/05/15 03:17:46;;;;;;;26.45;9.90;;;;;;;8.62;100.00;162817.34;4973858;28;20031;-57
2022/05/15 03:20:14;;;;;;;26.10;9.85;;;;;;;8.61;100.00;162816.00;4973711;28;20029;-57
2022/05/15 03:22:40;;;;;;;31.98;12.98;;;;;;;8.64;100.00;162822.75;4972308;28;20047;-58
2022/05/15 03:25:06;;;;;;;24.55;8.10;;;;;;;8.64;100.00;162824.06;4973939;28;20019;-58
2022/05/15 03:27:31;;;;;;;33.80;11.00;;;;;;;8.65;100.00;162825.44;4972080;28;20043;-58
2022/05/15 03:29:57;;;;;;;25.70;9.40;;;;;;;8.65;100.00;162825.44;4983979;28;20491;-57
2022/05/15 03:32:22;;;;;;;28.20;9.68;;;;;;;8.64;100.00;162822.75;4991493;28;20455;-57
2022/05/15 03:34:48;;;;;;;26.48;8.27;;;;;;;8.62;100.00;162817.34;4992579;28;20034;-57
2022/05/15 03:37:14;;;;;;;24.50;9.45;;;;;;;8.63;100.00;162821.41;4991832;28;20075;-58
2022/05/15 03:39:39;;;;;;;32.22;10.38;;;;;;;8.62;100.00;162818.72;4992956;28;20030;-57
2022/05/15 03:42:05;;;;;;;32.95;9.68;;;;;;;8.63;100.00;162821.41;4991270;28;20043;-58
2022/05/15 03:44:30;;;;;;;26.35;8.63;;;;;;;8.63;100.00;162821.41;4983961;28;20034;-58
2022/05/15 03:46:55;;;;;;;31.13;9.07;;;;;;;8.50;100.00;162787.72;4972196;28;20047;-58
2022/05/15 03:49:21;;;;;;;24.63;8.38;;;;;;;8.67;100.00;162830.84;4973061;28;20553;-58
2022/05/15 03:51:46;;;;;;;32.33;9.27;;;;;;;8.66;100.00;162828.16;4971955;28;20062;-57
2022/05/15 03:54:11;;;;;;;34.53;8.98;;;;;;;8.66;100.00;162828.16;4973448;28;20033;-57
2022/05/15 03:56:50;;;;;;;26.13;7.97;;;;;;;8.64;100.00;162822.75;4971416;28;20085;-58
2022/05/15 03:59:19;;;;;;;26.65;10.60;;;;;;;8.67;100.00;162832.19;4991669;28;20041;-58
2022/05/15 04:01:45;;;;;;;26.33;9.50;;;;;;;8.68;100.00;162833.50;4990918;28;20042;-57
2022/05/15 04:04:10;;;;;;;33.00;12.15;;;;;;;8.68;100.00;162833.50;4992178;28;20050;-57
2022/05/15 04:06:36;;;;;;;25.70;9.63;;;;;;;8.69;100.00;162836.22;4991068;28;20101;-57
2022/05/15 04:09:02;;;;;;;25.05;8.55;;;;;;;8.73;100.00;162847.03;4992353;28;20072;-57
2022/05/15 04:11:29;;;;;;;31.60;10.38;;;;;;;8.74;100.00;162849.72;4990125;28;20042;-56
2022/05/15 04:13:54;;;;;;;31.83;9.52;;;;;;;8.75;100.00;162852.38;4990350;28;20097;-58
2022/05/15 04:16:19;;;;;;;23.00;8.45;;;;;;;8.75;100.00;162852.38;4990694;28;20046;-58
2022/05/15 04:18:45;;;;;;;18.73;11.10;;;;;;;8.78;100.00;162860.50;4991913;28;20026;-58
2022/05/15 04:21:10;;;;;;;35.28;10.82;;;;;;;8.80;100.00;162865.91;4990808;28;20075;-57
2022/05/15 04:23:36;;;;;;;24.83;9.45;;;;;;;8.84;100.00;162875.34;4992147;28;20037;-58
2022/05/15 04:26:02;;;;;;;26.90;8.55;;;;;;;8.88;100.00;162886.09;4990598;28;20062;-58
2022/05/15 04:28:27;;;;;;;22.20;9.73;;;;;;;8.95;100.00;162903.66;4981698;28;20038;-58
2022/05/15 04:30:53;;;;;;;25.25;10.40;;;;;;;9.02;100.00;162922.53;4971047;28;20128;-57
2022/05/15 04:33:18;;;;;;;25.10;8.57;;;;;;;9.07;100.00;162934.66;4972418;28;20030;-57
2022/05/15 04:35:43;;;;;;;37.45;8.05;;;;;;;9.12;100.00;162949.47;4971059;28;20039;-58
2022/05/15 04:38:10;;;;;;;19.58;7.78;;;;;;;9.17;100.00;162962.97;4972664;28;20031;-57
2022/05/15 04:40:35;;;;;;;18.67;7.25;;;;;;;9.24;100.00;162979.16;4970760;28;20493;-57
2022/05/15 04:43:00;;;;;;;24.55;8.52;;;;;;;9.31;100.00;162999.38;4990974;28;20030;-58
2022/05/15 04:45:26;;;;;;;25.08;8.05;;;;;;;9.41;100.00;163023.66;4990622;28;20525;-57
2022/05/15 04:47:52;;;;;;;21.77;8.32;;;;;;;9.47;100.00;163041.22;4991341;28;20430;-57
2022/05/15 04:50:18;;;;;;;29.00;11.55;;;;;;;9.56;100.00;163062.78;4990450;28;20031;-57
2022/05/15 04:52:43;;;;;;;26.73;10.52;;;;;;;9.63;100.00;163081.69;4991751;28;20032;-57
2022/05/15 04:55:09;;;;;;;22.25;8.60;;;;;;;9.70;100.00;163100.56;4991535;28;20053;-57
2022/05/15 04:57:35;;;;;;;38.95;10.18;;;;;;;9.66;100.00;163091.13;4987472;28;20421;-57
2022/05/15 05:00:01;;;;;;;26.27;9.68;;;;;;;9.86;100.00;163141.03;4990532;28;20117;-56
2022/05/15 05:02:27;;;;;;;17.52;6.65;;;;;;;9.92;100.00;163158.53;4989209;28;20039;-56
2022/05/15 05:04:52;;;;;;;22.70;9.48;;;;;;;10.00;100.00;163178.81;4990740;28;20081;-57
2022/05/15 05:07:17;;;;;;;22.90;7.05;;;;;;;10.07;100.00;163197.69;4989940;28;20043;-57
2022/05/15 05:09:43;;;;;;;19.20;7.15;;;;;;;10.15;100.00;163219.28;4990890;28;20022;-57
2022/05/15 05:12:08;;;;;;;19.20;8.68;;;;;;;10.24;100.00;163240.91;4985935;28;20116;-57
2022/05/15 05:14:34;;;;;;;25.88;8.30;;;;;;;10.33;100.00;163265.16;4990926;28;20021;-58
2022/05/15 05:16:59;;;;;;;23.25;8.40;;;;;;;10.38;100.00;163278.72;4988891;28;20108;-57
2022/05/15 05:19:24;;;;;;;20.38;8.05;;;;;;;10.45;100.00;163296.25;4974720;28;20077;-57
2022/05/15 05:21:50;;;;;;;24.33;8.27;;;;;;;10.53;100.00;163317.84;4990104;28;20050;-56
2022/05/15 05:24:15;;;;;;;18.73;6.38;;;;;;;10.62;100.00;163342.16;4995642;28;20030;-57
2022/05/15 05:26:40;;;;;;;29.15;8.55;;;;;;;10.70;100.00;163362.38;4993162;28;20050;-57
2022/05/15 05:29:06;;;;;;;19.40;6.80;;;;;;;10.81;100.00;163390.72;4994711;28;20093;-56
2022/05/15 05:31:31;;;;;;;23.77;7.60;;;;;;;10.91;100.00;163416.38;4979993;28;20057;-56
2022/05/15 05:33:57;;;;;;;19.10;7.45;;;;;;;10.85;100.00;163400.19;4986537;28;20018;-57
2022/05/15 05:36:22;;;;;;;22.17;9.32;;;;;;;11.11;100.00;163469.03;4974511;28;20118;-56
2022/05/15 05:38:47;;;;;;;33.47;7.63;;;;;;;11.21;100.00;163494.69;4987493;28;20053;-56
2022/05/15 05:41:13;;;;;;;16.70;7.07;;;;;;;11.29;100.00;163516.28;4993525;28;20089;-56
2022/05/15 05:43:38;;;;;;;23.20;8.48;;;;;;;11.44;100.00;163555.47;4995191;28;20034;-56
2022/05/15 05:46:04;;;;;;;25.17;8.27;;;;;;;11.40;100.00;163546.03;4991904;28;20498;-57
2022/05/15 05:48:30;;;;;;;17.45;8.00;;;;;;;11.64;100.00;163608.16;4982210;28;20919;-56
2022/05/15 05:50:55;;;;;;;18.02;7.28;;;;;;;11.79;100.00;163645.97;4993688;28;20034;-57
2022/05/15 05:53:20;;;;;;;17.10;5.63;;;;;;;11.90;100.00;163675.69;4993574;28;20018;-56
2022/05/15 05:55:46;;;;;;;20.98;6.15;;;;;;;11.88;100.00;163671.63;4990655;28;20058;-57
2022/05/15 05:58:11;;;;;;;16.77;6.40;;;;;;;12.12;100.00;163732.47;4980641;28;20031;-57
2022/05/15 06:00:40;;;;;;;17.13;7.47;;;;;;;12.28;100.00;163775.72;4982637;28;20046;-57
2022/05/15 06:05:51;;;;;;;17.33;5.90;;;;;;;12.58;100.00;163854.09;4984255;28;20061;-57
2022/05/15 06:08:17;;;;;;;17.73;7.00;;;;;;;12.58;100.00;163854.09;4992252;28;20018;-57
2022/05/15 06:10:43;;;;;;;18.88;6.95;;;;;;;12.87;100.00;163929.78;4976096;28;20046;-56
2022/05/15 06:13:08;;;;;;;22.20;7.32;;;;;;;13.01;100.00;163966.28;4991182;28;20053;-56
2022/05/15 06:15:34;;;;;;;26.73;8.85;;;;;;;13.13;100.00;163997.38;4982245;28;20088;-56
2022/05/15 06:18:01;;;;;;;39.97;10.15;;;;;;;13.28;100.00;164036.56;4993008;28;20041;-56
2022/05/15 06:20:27;;;;;;;24.55;9.75;;;;;;;13.44;100.00;164078.56;4992659;28;20026;-56
2022/05/15 06:22:52;;;;;;;23.17;7.75;;;;;;;13.60;100.00;164121.78;4993526;28;20030;-56
2022/05/15 06:25:18;;;;;;;15.57;7.15;;;;;;;13.78;100.00;164169.13;4990436;28;20375;-56
2022/05/15 06:27:43;;;;;;;18.95;5.90;;;;;;;13.95;100.00;164213.78;4994810;28;20029;-56
2022/05/15 06:30:12;;;;;;;14.77;5.53;;;;;;;14.09;100.00;164248.94;4980620;28;20187;-56
2022/05/15 06:32:39;;;;;;;28.52;9.10;;;;;;;14.26;100.00;164294.91;4989624;28;20134;-56
2022/05/15 06:35:05;;;;;;;20.02;7.47;;;;;;;14.44;100.00;164342.25;4993802;28;20429;-55
2022/05/15 06:37:31;;;;;;;16.08;7.18;;;;;;;14.88;100.00;164457.34;4992138;28;20046;-56
2022/05/15 06:39:56;;;;;;;16.17;6.05;;;;;;;15.39;100.00;164589.97;4991920;28;20033;-56
2022/05/15 06:42:22;;;;;;;18.08;5.18;;;;;;;16.31;100.00;164832.41;4991667;28;20038;-56
2022/05/15 06:44:47;;;;;;;19.42;5.65;;;;;;;17.11;100.00;165041.13;4993485;28;20037;-56
2022/05/15 06:47:12;;;;;;;12.75;6.05;;;;;;;17.75;100.00;165209.16;4991992;28;20041;-56
2022/05/15 06:49:38;;;;;;;18.50;6.55;;;;;;;18.31;100.00;165356.97;4988951;28;20042;-56
2022/05/15 06:52:04;;;;;;;14.75;5.28;;;;;;;18.41;100.00;165381.38;4983278;28;20069;-56
2022/05/15 06:54:29;;;;;;;15.20;6.28;;;;;;;18.46;100.00;165394.94;4973545;28;20549;-56
2022/05/15 06:59:39;;;;;;;17.30;6.85;;;;;;;18.02;100.00;165279.72;4993160;28;20045;-56
2022/05/15 07:02:04;;;;;;;17.25;7.00;;;;;;;17.98;100.00;165270.22;4989288;28;20054;-56
2022/05/15 07:04:29;;;;;;;14.80;5.05;;;;;;;17.93;100.00;165256.59;4981764;28;20042;-56
2022/05/15 07:06:56;;;;;;;15.82;6.50;;;;;;;17.83;100.00;165229.50;4991844;28;20042;-56
2022/05/15 07:09:21;;;;;;;20.30;7.00;;;;;;;17.77;100.00;165214.56;4980468;28;20501;-56
2022/05/15 07:11:46;;;;;;;18.58;6.57;;;;;;;17.79;100.00;165218.63;4991778;28;20100;-56
2022/05/15 07:14:12;;;;;;;13.98;7.07;;;;;;;17.91;100.00;165251.16;4982560;28;20026;-56
2022/05/15 07:16:37;;;;;;;16.55;6.90;;;;;;;17.97;100.00;165266.13;4971859;28;20043;-56
2022/05/15 07:19:03;;;;;;;17.90;6.72;;;;;;;17.97;100.00;165267.50;4973844;28;20026;-55
2022/05/15 07:21:28;;;;;;;14.63;6.07;;;;;;;18.00;100.00;165275.59;4972325;28;20038;-55
2022/05/15 07:23:54;;;;;;;17.88;6.93;;;;;;;18.01;100.00;165278.34;4973175;28;20475;-55
2022/05/15 07:26:19;;;;;;;17.77;5.60;;;;;;;18.07;100.00;165294.59;4972114;28;20039;-55
2022/05/15 07:28:50;;;;;;;18.10;6.70;;;;;;;18.14;100.00;165310.84;4973398;28;20027;-55
2022/05/15 07:31:18;;;;;;;15.73;5.50;;;;;;;18.31;100.00;165356.97;4971793;28;20525;-55
2022/05/15 07:33:44;;;;;;;20.65;6.65;;;;;;;18.34;100.00;165365.13;4972458;28;20110;-55
2022/05/15 07:36:09;;;;;;;15.90;6.88;;;;;;;18.32;100.00;165359.69;4977534;28;20035;-55
2022/05/15 07:38:35;;;;;;;12.63;4.70;;;;;;;18.45;100.00;165392.22;4983908;28;20058;-55
2022/05/15 07:41:00;;;;;;;17.63;6.32;;;;;;;18.64;100.00;165443.78;4972192;28;20031;-55
2022/05/15 07:43:25;;;;;;;15.55;5.05;;;;;;;18.71;100.00;165461.38;4991061;28;20390;-55
2022/05/15 07:45:51;;;;;;;21.90;5.65;;;;;;;18.92;100.00;165517.06;4990884;28;20038;-55
2022/05/15 07:48:16;;;;;;;19.35;6.55;;;;;;;18.85;100.00;165499.34;4991100;28;20045;-54
2022/05/15 07:50:41;;;;;;;15.43;5.05;;;;;;;19.00;100.00;165538.75;4992360;28;20027;-55
2022/05/15 07:53:07;;;;;;;20.35;8.02;;;;;;;19.14;100.00;165574.03;4990670;28;20038;-55
2022/05/15 07:55:32;;;;;;;15.88;5.13;;;;;;;19.20;100.00;165590.28;4991859;28;20034;-55
2022/05/15 07:57:58;;;;;;;20.10;5.53;;;;;;;19.28;100.00;165612.00;4990859;28;20034;-55
2022/05/15 08:00:23;;;;;;;14.38;6.10;;;;;;;19.38;100.00;165636.44;4992049;28;20022;-55
2022/05/15 08:02:48;;;;;;;19.40;6.18;;;;;;;19.30;100.00;165617.44;4982509;28;20129;-55
2022/05/15 08:08:09;;;;;;;15.85;5.95;;;;;;;20.11;100.00;165830.50;4971108;28;20110;-55
2022/05/15 08:10:44;;;;;;;15.50;4.32;;;;;;;20.61;100.00;165960.84;4972507;28;20027;-55
2022/05/15 08:13:12;;;;;;;21.63;7.20;;;;;;;20.97;100.00;166054.53;4971462;28;20066;-55
2022/05/15 08:15:38;;;;;;;13.48;5.78;;;;;;;21.28;100.00;166137.41;4972005;28;20470;-55
2022/05/15 08:23:54;;;;;;;16.13;5.32;;;;;;;22.29;100.00;166402.34;4970452;28;20109;-55
2022/05/15 08:26:20;;;;;;;12.15;5.68;;;;;;;22.41;100.00;166433.66;4971126;28;20053;-55
2022/05/15 08:28:46;;;;;;;14.98;5.65;;;;;;;22.57;100.00;166475.75;4972335;28;20019;-55
2022/05/15 08:31:13;;;;;;;15.45;5.97;;;;;;;22.77;100.00;166530.13;4970807;28;20404;-55
2022/05/15 08:33:39;;;;;;;15.18;5.40;;;;;;;22.88;100.00;166557.31;4972218;28;20035;-55
2022/05/15 08:36:06;;;;;;;14.80;5.70;;;;;;;22.85;100.00;166549.13;4970965;28;20050;-55
2022/05/15 08:38:32;;;;;;;17.95;5.75;;;;;;;22.91;100.00;166566.81;4971746;28;20426;-55
2022/05/15 08:41:00;;;;;;;14.73;3.70;;;;;;;23.14;100.00;166627.97;4970927;28;20045;-55
2022/05/15 08:44:01;;;;;;;17.52;6.05;;;;;;;22.79;100.00;166535.56;4972305;28;20034;-55
2022/05/15 08:46:39;;;;;;;17.45;5.65;;;;;;;22.94;100.00;166574.94;4970113;28;20038;-55
2022/05/15 08:49:20;;;;;;;19.63;7.10;;;;;;;22.84;100.00;166547.81;4972264;28;20029;-55
2022/05/15 08:52:04;;;;;;;14.70;5.75;;;;;;;22.36;100.00;166421.38;4970625;28;20039;-55
2022/05/15 08:54:30;;;;;;;22.50;7.13;;;;;;;22.13;100.00;166360.19;4972175;28;20395;-55
2022/05/15 08:56:56;;;;;;;16.63;5.32;;;;;;;22.48;100.00;166454.00;4970487;28;20398;-55
2022/05/15 08:59:31;;;;;;;22.27;7.00;;;;;;;22.66;100.00;166501.56;4971771;28;20027;-55
2022/05/15 09:01:59;;;;;;;18.63;5.28;;;;;;;22.65;99.43;166497.50;4970536;28;20097;-55
2022/05/15 09:04:25;;;;;;;21.25;5.45;;;;;;;23.02;100.00;166593.97;4972066;28;20047;-55
2022/05/15 09:06:56;;;;;;;14.30;6.68;;;;;;;22.97;99.29;166581.78;4970061;28;20556;-55
2022/05/15 09:09:50;;;;;;;11.55;5.22;;;;;;;23.22;99.82;166647.06;4972091;28;20086;-55
2022/05/15 09:12:19;;;;;;;14.85;4.25;;;;;;;23.14;92.34;166627.97;4969430;28;20047;-55
2022/05/15 09:14:50;;;;;;;13.70;4.82;;;;;;;23.67;91.76;166766.69;4971457;28;20027;-55
2022/05/15 09:17:24;;;;;;;14.88;5.25;;;;;;;24.19;91.34;166902.72;4970312;28;20047;-55
2022/05/15 09:19:55;;;;;;;16.52;6.28;;;;;;;24.32;91.37;166938.06;4971856;28;20039;-55
2022/05/15 09:22:24;;;;;;;13.10;5.53;;;;;;;24.39;84.23;166957.13;4969869;28;20117;-55
2022/05/15 09:24:51;;;;;;;23.45;5.03;;;;;;;24.45;82.50;166970.75;4971718;28;20031;-55
2022/05/15 09:27:20;;;;;;;13.43;5.43;;;;;;;24.47;83.03;166976.16;4976792;28;20121;-55
2022/05/15 09:30:00;;;;;;;15.70;4.45;;;;;;;24.48;82.71;166980.28;4990245;28;20512;-55
2022/05/15 09:32:27;;;;;;;14.05;5.63;;;;;;;24.27;80.83;166924.50;4989136;28;20039;-55
2022/05/15 09:34:55;;;;;;;22.37;6.30;;;;;;;24.28;80.72;166927.22;4990734;28;20026;-55
2022/05/15 09:43:30;;;;;;;23.15;5.70;;;;;;;24.37;74.04;166951.72;4975728;28;20100;-55
2022/05/15 09:43:31;;;;;;;21.23;4.80;;;;;;;24.61;78.91;167014.25;4990161;28;20477;-55
2022/05/15 09:45:57;;;;;;;24.58;6.32;;;;;;;24.44;73.67;166968.03;4989423;28;20038;-55
2022/05/15 09:48:27;;;;;;;19.42;5.78;;;;;;;24.44;70.73;166969.38;4991085;28;20030;-55
2022/05/15 09:51:00;;;;;;;19.30;5.15;;;;;;;24.48;72.99;166978.88;4988953;28;20066;-55
2022/05/15 09:53:37;;;;;;;16.92;6.80;;;;;;;24.40;73.61;166959.84;4990834;28;20027;-55
2022/05/15 09:56:07;;;;;;;19.67;5.07;;;;;;;24.29;75.22;166929.94;4989370;28;20053;-54
2022/05/15 09:58:45;;;;;;;18.25;5.05;;;;;;;24.26;72.33;166920.44;4990015;28;20801;-55
2022/05/15 10:01:52;;;;;;;12.40;4.63;;;;;;;24.59;74.93;167008.84;4989520;28;20137;-55
2022/05/15 10:04:26;;;;;;;14.43;4.03;;;;;;;24.66;70.19;167027.94;4989834;28;20050;-55
2022/05/15 10:07:04;;;;;;;15.07;4.63;;;;;;;24.48;68.67;166980.28;4989090;28;20046;-55
2022/05/15 10:09:40;;;;;;;17.92;4.82;;;;;;;24.51;73.05;166988.41;4993771;28;20030;-55
2022/05/15 10:12:15;;;;;;;18.63;6.25;;;;;;;24.24;69.03;166917.69;4992874;28;20039;-55
2022/05/15 10:14:46;;;;;;;9.82;3.75;;;;;;;24.41;67.23;166961.22;4993927;28;20030;-55
2022/05/15 10:17:14;;;;;;;13.05;4.82;;;;;;;24.84;67.58;167074.16;4992934;28;20050;-55
2022/05/15 10:19:50;;;;;;;16.33;4.65;;;;;;;24.61;63.28;167014.25;4992853;28;20034;-55
2022/05/15 10:22:25;;;;;;;16.10;5.00;;;;;;;25.42;65.39;167227.97;4992361;28;20505;-55
2022/05/15 10:24:50;;;;;;;10.27;4.50;;;;;;;25.83;65.38;167335.47;4993948;28;20553;-55
2022/05/15 10:27:22;;;;;;;16.45;5.40;;;;;;;25.53;59.60;167256.53;4992910;28;20050;-54
2022/05/15 10:29:56;;;;;;;11.23;4.18;;;;;;;25.69;60.39;167298.72;4993649;28;20026;-55
2022/05/15 10:32:56;;;;;;;17.70;5.38;;;;;;;25.80;60.18;167327.34;4992474;28;20053;-55
2022/05/15 10:35:35;;;;;;;13.52;3.95;;;;;;;25.94;58.70;167365.44;4990925;28;20034;-55
2022/05/15 10:38:20;;;;;;;14.95;4.22;;;;;;;25.84;58.77;167338.22;4994210;28;20022;-55
2022/05/15 10:40:52;;;;;;;13.15;3.88;;;;;;;25.65;57.79;167289.19;4992259;28;20089;-55
2022/05/15 10:43:29;;;;;;;9.20;4.45;;;;;;;25.37;56.43;167212.94;4993575;28;20026;-55
2022/05/15 10:46:11;;;;;;;14.63;4.53;;;;;;;24.80;58.17;167063.28;4992152;28;20465;-55
2022/05/15 10:49:17;;;;;;;11.52;4.68;;;;;;;24.55;61.13;166997.94;4993811;28;20389;-54
2022/05/15 10:52:06;;;;;;;16.20;5.50;;;;;;;23.97;60.09;166844.28;4991920;28;20053;-55
2022/05/15 10:57:54;;;;;;;12.43;3.28;;;;;;;24.86;59.99;167079.59;4992235;28;20053;-55
2022/05/15 11:00:50;;;;;;;17.55;6.35;;;;;;;25.05;57.31;167128.59;4991631;28;20112;-55
2022/05/15 11:03:37;;;;;;;14.48;5.35;;;;;;;25.24;60.38;167180.28;4992963;28;20504;-56
2022/05/15 11:06:25;;;;;;;12.50;5.13;;;;;;;25.60;60.96;167275.59;4991997;28;20493;-55
2022/05/15 11:09:15;;;;;;;20.58;4.18;;;;;;;25.28;59.04;167191.16;4993186;28;20035;-55
2022/05/15 11:11:50;;;;;;;10.20;3.95;;;;;;;24.94;59.76;167101.38;4991844;28;20080;-55
2022/05/15 11:14:25;;;;;;;12.60;4.38;;;;;;;25.00;58.01;167117.69;5008573;28;20079;-55
2022/05/15 11:17:20;;;;;;;14.57;4.85;;;;;;;25.42;58.00;167226.63;4992107;28;20592;-55
2022/05/15 11:19:46;;;;;;;12.48;4.88;;;;;;;25.55;53.93;167262.00;4992109;28;20046;-55
2022/05/15 11:22:32;;;;;;;16.75;4.35;;;;;;;25.59;57.31;167272.88;4991349;28;20136;-55
2022/05/15 11:25:08;;;;;;;10.63;4.47;;;;;;;25.82;54.86;167332.75;4993196;28;20026;-55
2022/05/15 11:27:51;;;;;;;16.55;4.28;;;;;;;25.86;55.38;167343.66;4991518;28;20109;-55
2022/05/15 11:30:19;;;;;;;17.55;3.88;;;;;;;26.13;56.58;167415.88;4991757;28;20072;-55
2022/05/15 11:32:44;;;;;;;15.80;3.20;;;;;;;26.31;58.49;167460.78;4993198;28;20018;-55
2022/05/15 11:35:12;;;;;;;13.98;3.95;;;;;;;26.32;55.11;167463.50;4992681;28;20121;-55
2022/05/15 11:37:38;;;;;;;12.82;3.78;;;;;;;26.26;57.59;167449.84;4991802;28;20034;-55
2022/05/15 11:40:08;;;;;;;12.75;4.25;;;;;;;26.22;56.25;167437.59;4993057;28;20165;-55
2022/05/15 11:42:34;;;;;;;13.23;4.75;;;;;;;26.25;55.33;167447.13;4991046;28;20042;-55